Time;durP1;ratioP1;P1;durP2;ratioP2;P2;SDS_P1;SDS_P2;PMS_P1;PMS_P2;Temp;Humidity;BMP_temperature;BMP_pressure;BME280_temperature;BME280_humidity;BME280_pressure;Samples;Min_cycle;Max_cycle;Signal;HPM_P1;HPM_P2
2023/08/28 00:00:15;;;;;;;5.10;4.25;;;21.00;99.90;;;;;;5039734;28;20029;-83
2023/08/28 00:02:41;;;;;;;4.57;3.40;;;21.00;99.90;;;;;;5039316;28;20034;-83
2023/08/28 00:05:06;;;;;;;3.95;3.42;;;20.90;99.90;;;;;;5045767;28;20029;-81
2023/08/28 00:07:32;;;;;;;5.05;3.33;;;20.90;99.90;;;;;;5053164;28;20033;-81
2023/08/28 00:09:58;;;;;;;5.32;3.53;;;20.80;99.90;;;;;;5054097;28;20155;-82
2023/08/28 00:12:23;;;;;;;4.43;3.90;;;20.80;99.90;;;;;;5053715;28;20411;-82
2023/08/28 00:14:49;;;;;;;5.30;3.88;;;20.90;99.90;;;;;;5053833;28;20033;-81
2023/08/28 00:17:16;;;;;;;3.42;2.80;;;20.80;99.90;;;;;;5048756;28;20032;-83
2023/08/28 00:19:42;;;;;;;8.55;4.07;;;20.80;99.90;;;;;;5043973;28;20017;-81
2023/08/28 00:22:07;;;;;;;4.75;3.30;;;20.80;99.90;;;;;;5044115;28;20036;-82
2023/08/28 00:24:33;;;;;;;4.45;3.25;;;20.80;99.90;;;;;;5034796;28;20440;-83
2023/08/28 00:26:58;;;;;;;3.72;3.33;;;20.80;99.90;;;;;;5034638;28;20025;-83
2023/08/28 00:29:24;;;;;;;4.47;3.40;;;20.80;99.90;;;;;;5034724;28;20025;-83
2023/08/28 00:31:50;;;;;;;14.07;3.60;;;20.80;99.90;;;;;;5034567;28;20495;-83
2023/08/28 00:34:15;;;;;;;3.58;3.00;;;20.80;99.90;;;;;;5034378;28;20026;-81
2023/08/28 00:36:42;;;;;;;4.05;3.38;;;20.70;99.90;;;;;;5034518;28;20025;-82
2023/08/28 00:39:08;;;;;;;3.30;2.78;;;20.70;99.90;;;;;;5035411;28;20017;-82
2023/08/28 00:41:34;;;;;;;3.80;2.63;;;20.70;99.90;;;;;;5036187;28;20022;-82
2023/08/28 00:44:00;;;;;;;3.78;2.80;;;20.60;99.90;;;;;;5036326;28;20044;-83
2023/08/28 00:46:26;;;;;;;5.65;2.97;;;20.60;99.90;;;;;;5035724;28;20030;-83
2023/08/28 00:48:52;;;;;;;4.25;3.55;;;20.60;99.90;;;;;;5033932;28;20033;-82
2023/08/28 00:51:17;;;;;;;3.65;2.65;;;20.50;99.90;;;;;;5034035;28;20078;-82
2023/08/28 00:53:43;;;;;;;4.78;3.38;;;20.40;99.90;;;;;;5035911;28;20091;-82
2023/08/28 00:56:09;;;;;;;3.38;2.80;;;20.40;99.90;;;;;;5033962;28;20116;-83
2023/08/28 00:58:34;;;;;;;6.53;3.10;;;20.40;99.90;;;;;;5035274;28;20056;-83
2023/08/28 01:01:01;;;;;;;4.50;2.92;;;20.40;99.90;;;;;;5035083;28;20515;-83
2023/08/28 01:03:26;;;;;;;2.42;2.10;;;20.40;99.90;;;;;;5034489;28;20014;-82
2023/08/28 01:06:10;;;;;;;4.03;2.40;;;20.40;99.90;;;;;;5033541;28;20176;-83
2023/08/28 01:08:36;;;;;;;4.32;2.40;;;20.40;99.90;;;;;;5033683;28;20030;-82
2023/08/28 01:11:14;;;;;;;3.75;2.65;;;20.40;99.90;;;;;;5033868;28;20163;-83
2023/08/28 01:14:12;;;;;;;3.83;2.58;;;20.40;99.90;;;;;;5033783;28;20488;-83
2023/08/28 01:16:39;;;;;;;2.85;1.95;;;20.40;99.90;;;;;;5034632;28;20022;-83
2023/08/28 01:19:10;;;;;;;2.38;2.17;;;20.40;99.90;;;;;;5034997;28;20037;-82
2023/08/28 01:21:37;;;;;;;2.10;1.90;;;20.40;99.90;;;;;;5033361;28;20582;-82
2023/08/28 01:24:06;;;;;;;2.33;1.95;;;20.40;99.90;;;;;;5033773;28;20115;-82
2023/08/28 01:26:32;;;;;;;2.58;1.92;;;20.40;99.90;;;;;;5033341;28;20029;-82
2023/08/28 01:28:57;;;;;;;2.95;1.92;;;20.40;99.90;;;;;;5033603;28;20133;-83
2023/08/28 01:31:23;;;;;;;5.13;2.17;;;20.40;99.90;;;;;;5033374;28;20733;-82
2023/08/28 01:33:51;;;;;;;2.25;2.05;;;20.30;99.90;;;;;;5033231;28;20029;-82
2023/08/28 01:36:36;;;;;;;2.85;2.05;;;20.20;99.90;;;;;;5034462;28;20097;-82
2023/08/28 01:39:16;;;;;;;2.00;1.80;;;20.20;99.90;;;;;;5033264;28;20032;-83
2023/08/28 01:41:42;;;;;;;4.30;1.80;;;20.20;99.90;;;;;;5033604;28;20029;-83
2023/08/28 01:44:09;;;;;;;2.90;1.60;;;20.20;99.90;;;;;;5035567;28;20033;-82
2023/08/28 01:46:35;;;;;;;2.03;1.80;;;20.20;99.90;;;;;;5033388;28;20025;-83
2023/08/28 01:49:01;;;;;;;1.55;1.45;;;20.20;99.90;;;;;;5033203;28;20030;-83
2023/08/28 01:51:28;;;;;;;1.73;1.63;;;20.20;99.90;;;;;;5033210;28;20031;-83
2023/08/28 01:53:53;;;;;;;5.05;1.77;;;20.20;99.90;;;;;;5033398;28;20464;-83
2023/08/28 01:56:25;;;;;;;2.45;1.65;;;20.30;99.90;;;;;;5034150;28;20038;-83
2023/08/28 01:58:58;;;;;;;1.92;1.77;;;20.30;99.90;;;;;;5032903;28;20487;-83
2023/08/28 02:01:25;;;;;;;2.55;2.08;;;20.20;99.90;;;;;;5033028;28;20076;-83
2023/08/28 02:03:51;;;;;;;1.55;1.45;;;20.30;99.90;;;;;;5033156;28;20033;-83
2023/08/28 02:06:17;;;;;;;1.92;1.50;;;20.30;99.90;;;;;;5034362;28;20021;-83
2023/08/28 02:08:43;;;;;;;2.05;1.75;;;20.30;99.90;;;;;;5034173;28;20017;-82
2023/08/28 02:11:09;;;;;;;1.33;1.20;;;20.30;99.90;;;;;;5033138;28;20029;-83
2023/08/28 02:13:35;;;;;;;1.75;1.60;;;20.30;99.90;;;;;;5032423;28;20026;-83
2023/08/28 02:16:02;;;;;;;1.70;1.60;;;20.30;99.90;;;;;;5033054;28;20028;-83
2023/08/28 02:18:28;;;;;;;1.80;1.70;;;20.30;99.90;;;;;;5034106;28;20033;-83
2023/08/28 02:20:54;;;;;;;1.30;1.20;;;20.30;99.90;;;;;;5034342;28;20018;-83
2023/08/28 02:23:20;;;;;;;1.55;1.33;;;20.30;99.90;;;;;;5032534;28;20546;-83
2023/08/28 02:25:47;;;;;;;2.25;1.38;;;20.30;99.90;;;;;;5032905;28;20116;-82
2023/08/28 02:28:13;;;;;;;1.30;1.13;;;20.30;99.90;;;;;;5033632;28;20039;-82
2023/08/28 02:30:38;;;;;;;1.50;1.40;;;20.20;99.90;;;;;;5033870;28;20120;-83
2023/08/28 02:33:04;;;;;;;1.80;1.10;;;20.30;99.90;;;;;;5034769;28;20033;-83
2023/08/28 02:35:30;;;;;;;2.58;1.88;;;20.30;99.90;;;;;;5032954;28;20025;-83
2023/08/28 02:37:55;;;;;;;2.15;1.35;;;20.30;99.90;;;;;;5032915;28;20514;-83
2023/08/28 02:40:21;;;;;;;1.00;0.98;;;20.30;99.90;;;;;;5032939;28;20029;-83
2023/08/28 02:42:47;;;;;;;1.25;1.15;;;20.30;99.90;;;;;;5034621;28;20021;-83
2023/08/28 02:45:12;;;;;;;1.20;1.10;;;20.30;99.90;;;;;;5034578;28;20034;-83
2023/08/28 02:47:38;;;;;;;2.10;1.40;;;20.40;99.90;;;;;;5032436;28;20021;-82
2023/08/28 02:50:04;;;;;;;1.60;1.33;;;20.30;99.90;;;;;;5032433;28;20128;-83
2023/08/28 02:52:30;;;;;;;2.85;1.27;;;20.30;99.90;;;;;;5034143;28;20022;-83
2023/08/28 02:54:56;;;;;;;1.65;1.50;;;20.40;99.90;;;;;;5033155;28;20029;-83
2023/08/28 02:57:22;;;;;;;1.52;1.42;;;20.30;99.90;;;;;;5051366;22;20060;-76
2023/08/28 02:59:47;;;;;;;5.55;1.40;;;20.30;99.90;;;;;;5030631;28;20026;-76
2023/08/28 03:02:13;;;;;;;1.10;1.10;;;20.20;99.90;;;;;;5031194;28;20025;-75
2023/08/28 03:04:39;;;;;;;0.85;0.77;;;20.30;99.90;;;;;;5046981;28;20164;-76
2023/08/28 03:07:04;;;;;;;2.50;1.02;;;20.30;99.90;;;;;;5031325;28;20483;-76
2023/08/28 03:09:31;;;;;;;1.50;1.30;;;20.30;99.90;;;;;;5030362;28;20033;-76
2023/08/28 03:11:57;;;;;;;2.63;1.08;;;20.30;99.90;;;;;;5030207;28;20057;-76
2023/08/28 03:14:22;;;;;;;1.60;1.35;;;20.20;99.90;;;;;;5031498;28;20103;-77
2023/08/28 03:16:48;;;;;;;2.38;1.10;;;20.20;99.90;;;;;;5031276;28;20026;-76
2023/08/28 03:19:14;;;;;;;0.77;0.77;;;20.10;99.90;;;;;;5030120;28;20135;-76
2023/08/28 03:21:40;;;;;;;1.45;1.30;;;20.20;99.90;;;;;;5030302;28;20431;-76
2023/08/28 03:24:06;;;;;;;1.92;1.10;;;20.20;99.90;;;;;;5030179;28;20026;-77
2023/08/28 03:26:33;;;;;;;1.30;1.20;;;20.10;99.90;;;;;;5034523;28;20076;-76
2023/08/28 03:28:59;;;;;;;1.13;1.00;;;20.10;99.90;;;;;;5033539;28;20029;-77
2023/08/28 03:31:26;;;;;;;1.60;1.25;;;20.00;99.90;;;;;;5033698;28;20057;-76
2023/08/28 03:33:51;;;;;;;2.15;1.25;;;20.10;99.90;;;;;;5033519;28;20037;-76
2023/08/28 03:36:17;;;;;;;1.80;1.05;;;20.00;99.90;;;;;;5029238;28;20022;-77
2023/08/28 03:38:43;;;;;;;3.88;1.10;;;20.00;99.90;;;;;;5013568;28;20018;-76
2023/08/28 03:41:09;;;;;;;1.83;1.10;;;20.00;99.90;;;;;;5015081;28;20435;-76
2023/08/28 03:43:35;;;;;;;1.30;1.20;;;20.00;99.90;;;;;;5013586;28;20037;-76
2023/08/28 03:46:00;;;;;;;0.90;0.90;;;19.90;99.90;;;;;;5013418;28;20026;-77
2023/08/28 03:48:26;;;;;;;1.20;1.05;;;19.90;99.90;;;;;;5013501;28;20064;-76
2023/08/28 03:50:52;;;;;;;1.23;1.02;;;20.00;99.90;;;;;;5013669;28;20037;-75
2023/08/28 03:53:18;;;;;;;0.93;0.68;;;19.90;99.90;;;;;;5014934;28;20030;-76
2023/08/28 03:55:43;;;;;;;1.02;0.88;;;19.80;99.90;;;;;;5013288;28;20037;-78
2023/08/28 03:58:09;;;;;;;0.70;0.63;;;19.80;99.90;;;;;;5013039;28;20474;-76
2023/08/28 04:00:35;;;;;;;0.70;0.70;;;19.80;99.90;;;;;;5014456;28;20485;-77
2023/08/28 04:03:01;;;;;;;4.47;0.88;;;19.70;99.90;;;;;;5014482;28;20041;-76
2023/08/28 04:05:27;;;;;;;1.30;0.68;;;19.80;99.90;;;;;;5014482;28;20026;-76
2023/08/28 04:07:53;;;;;;;0.63;0.60;;;19.80;99.90;;;;;;5014046;28;20072;-76
2023/08/28 04:10:19;;;;;;;1.40;1.00;;;19.70;99.90;;;;;;5013136;28;20033;-76
2023/08/28 04:12:45;;;;;;;1.05;0.95;;;19.70;99.90;;;;;;5013080;28;20037;-76
2023/08/28 04:15:10;;;;;;;0.55;0.55;;;19.70;99.90;;;;;;5013064;28;20022;-77
2023/08/28 04:17:37;;;;;;;1.98;0.50;;;19.70;99.90;;;;;;5012686;28;20018;-77
2023/08/28 04:20:12;;;;;;;0.52;0.52;;;19.80;99.90;;;;;;5012946;28;20408;-76
2023/08/28 04:22:41;;;;;;;1.23;0.68;;;19.80;99.90;;;;;;5013026;28;20018;-78
2023/08/28 04:25:07;;;;;;;1.60;0.50;;;19.70;99.90;;;;;;5012970;28;20164;-75
2023/08/28 04:27:33;;;;;;;1.48;0.50;;;19.70;99.90;;;;;;5012527;28;20575;-76
2023/08/28 04:29:59;;;;;;;2.55;0.47;;;19.60;99.90;;;;;;5012951;28;20061;-77
2023/08/28 04:32:24;;;;;;;1.13;1.02;;;19.70;99.90;;;;;;5014119;28;20108;-77
2023/08/28 04:34:50;;;;;;;0.60;0.50;;;20.40;99.90;;;;;;5012270;28;20160;-78
2023/08/28 04:37:16;;;;;;;0.43;0.43;;;20.70;99.90;;;;;;5013520;28;20029;-81
2023/08/28 04:39:41;;;;;;;0.50;0.50;;;21.40;99.90;;;;;;5012755;28;20025;-82
2023/08/28 04:42:07;;;;;;;0.40;0.40;;;21.40;99.90;;;;;;5012650;28;20025;-80
2023/08/28 04:44:32;;;;;;;0.68;0.68;;;21.70;99.90;;;;;;5016060;28;20487;-83
2023/08/28 04:46:59;;;;;;;1.17;1.08;;;21.60;99.90;;;;;;5017190;28;20488;-78
2023/08/28 04:49:24;;;;;;;0.65;0.65;;;21.40;99.90;;;;;;5012464;28;20061;-79
2023/08/28 04:51:50;;;;;;;0.55;0.40;;;21.30;99.90;;;;;;5012547;28;20528;-78
2023/08/28 04:54:16;;;;;;;1.65;0.40;;;21.60;99.90;;;;;;5012371;28;20116;-78
2023/08/28 04:56:41;;;;;;;0.28;0.28;;;21.60;99.90;;;;;;5012201;28;20121;-78
2023/08/28 04:59:07;;;;;;;1.08;0.38;;;21.50;99.90;;;;;;5012183;28;20022;-77
2023/08/28 05:01:33;;;;;;;0.63;0.30;;;21.40;99.90;;;;;;5012215;28;20392;-78
2023/08/28 05:03:59;;;;;;;0.75;0.40;;;21.30;99.90;;;;;;5011871;28;20588;-77
2023/08/28 05:06:24;;;;;;;0.30;0.30;;;21.20;99.90;;;;;;5027464;28;20036;-79
2023/08/28 05:08:50;;;;;;;0.57;0.57;;;20.90;99.90;;;;;;5031800;28;20120;-80
2023/08/28 05:11:16;;;;;;;1.42;1.15;;;21.10;99.90;;;;;;5031583;28;20021;-78
2023/08/28 05:13:42;;;;;;;1.10;0.90;;;21.40;99.90;;;;;;5031820;28;20443;-78
2023/08/28 05:16:07;;;;;;;3.03;0.90;;;21.40;99.90;;;;;;5031682;28;20163;-78
2023/08/28 05:18:33;;;;;;;5.15;0.88;;;21.20;99.90;;;;;;5031491;28;20022;-79
2023/08/28 05:20:59;;;;;;;1.10;0.80;;;21.50;99.90;;;;;;5031746;28;20025;-78
2023/08/28 05:23:27;;;;;;;2.00;1.13;;;21.50;99.90;;;;;;5031534;28;20041;-77
2023/08/28 05:25:54;;;;;;;2.00;1.40;;;21.60;99.90;;;;;;5031431;28;20533;-77
2023/08/28 05:28:20;;;;;;;1.23;0.55;;;21.50;99.90;;;;;;5031275;28;20166;-77
2023/08/28 05:30:45;;;;;;;2.80;1.48;;;21.60;99.70;;;;;;5031444;28;20052;-76
2023/08/28 05:33:11;;;;;;;2.15;1.83;;;21.70;98.50;;;;;;5031521;28;20072;-77
2023/08/28 05:35:36;;;;;;;1.15;0.70;;;21.70;98.60;;;;;;5031845;28;20125;-80
2023/08/28 05:38:03;;;;;;;2.47;1.60;;;21.70;98.20;;;;;;5031187;28;20053;-80
2023/08/28 05:40:28;;;;;;;0.70;0.50;;;21.60;97.90;;;;;;5031465;28;20027;-82
2023/08/28 05:42:54;;;;;;;1.88;1.02;;;21.70;97.50;;;;;;5031513;28;20093;-81
2023/08/28 05:45:19;;;;;;;0.95;0.80;;;21.70;98.20;;;;;;5031390;28;20114;-83
2023/08/28 05:47:45;;;;;;;0.57;0.50;;;21.90;98.30;;;;;;5033532;28;20498;-78
2023/08/28 05:50:11;;;;;;;0.30;0.30;;;21.80;96.20;;;;;;5032657;28;20025;-85
2023/08/28 05:52:36;;;;;;;1.50;0.77;;;21.70;96.10;;;;;;5031801;28;20037;-85
2023/08/28 05:55:06;;;;;;;1.00;0.60;;;21.70;96.90;;;;;;5031634;28;20433;-81
2023/08/28 05:57:32;;;;;;;0.50;0.35;;;21.90;97.10;;;;;;5030842;28;20482;-81
2023/08/28 05:59:57;;;;;;;0.52;0.30;;;21.90;98.00;;;;;;5031338;28;20116;-82
2023/08/28 06:02:23;;;;;;;2.22;0.60;;;22.20;96.00;;;;;;5032415;28;20017;-81
2023/08/28 06:04:49;;;;;;;0.40;0.40;;;22.10;95.50;;;;;;5031154;28;20069;-80
2023/08/28 06:07:14;;;;;;;0.43;0.30;;;22.20;95.70;;;;;;5030656;28;20159;-81
2023/08/28 06:09:43;;;;;;;0.30;0.28;;;22.30;94.80;;;;;;5031047;28;20026;-81
2023/08/28 06:12:08;;;;;;;0.20;0.17;;;22.30;95.10;;;;;;5032272;28;20053;-82
2023/08/28 06:14:34;;;;;;;1.02;0.30;;;22.20;94.50;;;;;;5032293;28;20060;-80
2023/08/28 06:17:00;;;;;;;0.40;0.40;;;22.10;94.50;;;;;;5031984;28;20108;-78
2023/08/28 06:19:25;;;;;;;3.05;0.38;;;22.00;95.40;;;;;;5030941;28;20026;-80
2023/08/28 06:21:51;;;;;;;0.30;0.30;;;22.00;94.70;;;;;;5031120;28;20022;-81
2023/08/28 06:24:16;;;;;;;1.05;0.30;;;22.00;95.00;;;;;;5030991;28;20033;-81
2023/08/28 06:26:42;;;;;;;0.10;0.10;;;22.00;94.60;;;;;;5031905;28;20079;-81
2023/08/28 06:29:08;;;;;;;0.28;0.28;;;22.10;94.60;;;;;;5030644;28;20026;-80
2023/08/28 06:31:34;;;;;;;0.20;0.20;;;22.10;94.30;;;;;;5030842;28;20032;-80
2023/08/28 06:34:00;;;;;;;0.30;0.30;;;22.30;95.00;;;;;;5030574;28;20057;-82
2023/08/28 06:36:26;;;;;;;1.05;0.30;;;22.20;94.90;;;;;;5031305;28;20112;-79
2023/08/28 06:38:52;;;;;;;0.93;0.30;;;22.10;93.40;;;;;;5030470;28;20511;-79
2023/08/28 06:41:20;;;;;;;0.20;0.20;;;22.10;94.00;;;;;;5031983;28;20026;-80
2023/08/28 06:43:49;;;;;;;0.47;0.40;;;22.10;94.00;;;;;;5030637;28;20026;-80
2023/08/28 06:46:15;;;;;;;0.43;0.43;;;22.30;94.50;;;;;;5031722;28;20437;-79
2023/08/28 06:48:45;;;;;;;0.13;0.13;;;22.60;94.40;;;;;;5030467;28;20022;-79
2023/08/28 06:51:11;;;;;;;0.13;0.13;;;22.80;94.30;;;;;;5032585;28;20029;-80
2023/08/28 06:53:38;;;;;;;0.30;0.30;;;22.90;92.80;;;;;;5034063;28;20025;-80
2023/08/28 06:56:04;;;;;;;0.68;0.43;;;22.70;92.40;;;;;;5035215;28;20060;-83
2023/08/28 06:58:30;;;;;;;0.40;0.25;;;22.70;92.20;;;;;;5032379;28;20030;-82
2023/08/28 07:00:55;;;;;;;0.25;0.20;;;22.70;92.10;;;;;;5037483;28;20139;-82
2023/08/28 07:03:21;;;;;;;1.45;0.40;;;22.80;92.20;;;;;;5036014;28;20499;-79
2023/08/28 07:05:47;;;;;;;0.13;0.13;;;22.90;92.70;;;;;;5035313;28;20514;-84
2023/08/28 07:08:12;;;;;;;0.20;0.20;;;23.00;92.00;;;;;;5035491;28;20021;-85
2023/08/28 07:10:38;;;;;;;0.32;0.30;;;23.00;92.10;;;;;;5039543;28;20032;-82
2023/08/28 07:13:03;;;;;;;0.43;0.43;;;23.10;91.50;;;;;;5039932;28;20026;-84
2023/08/28 07:15:29;;;;;;;0.30;0.30;;;23.00;91.20;;;;;;5038289;28;20479;-82
2023/08/28 07:17:55;;;;;;;0.38;0.38;;;23.10;91.10;;;;;;5037964;28;20116;-81
2023/08/28 07:20:22;;;;;;;0.35;0.35;;;23.20;91.40;;;;;;5037259;28;20022;-82
2023/08/28 07:22:48;;;;;;;3.85;0.40;;;23.20;91.00;;;;;;5038507;28;20120;-82
2023/08/28 07:25:15;;;;;;;0.93;0.68;;;23.30;90.90;;;;;;5037928;28;20506;-80
2023/08/28 07:27:40;;;;;;;0.30;0.30;;;23.40;90.90;;;;;;5038518;28;20143;-83
2023/08/28 07:30:07;;;;;;;0.55;0.35;;;23.40;90.50;;;;;;5036802;28;20037;-84
2023/08/28 07:32:33;;;;;;;0.50;0.30;;;23.50;90.30;;;;;;5038925;28;20098;-82
2023/08/28 07:35:01;;;;;;;0.45;0.45;;;23.60;90.00;;;;;;5042480;28;20036;-85
2023/08/28 07:37:30;;;;;;;0.50;0.50;;;23.60;89.60;;;;;;5040600;28;20021;-84
2023/08/28 07:39:56;;;;;;;0.20;0.20;;;23.60;89.50;;;;;;5038471;28;20452;-81
2023/08/28 07:42:21;;;;;;;0.52;0.20;;;23.50;88.80;;;;;;5046945;28;20029;-83
2023/08/28 07:44:47;;;;;;;0.90;0.40;;;23.50;88.80;;;;;;5042628;28;20128;-79
2023/08/28 07:47:13;;;;;;;0.40;0.40;;;23.60;89.00;;;;;;5033009;28;20057;-77
2023/08/28 07:49:41;;;;;;;1.60;0.50;;;23.70;88.60;;;;;;5033662;28;20439;-79
2023/08/28 07:52:08;;;;;;;1.10;0.70;;;23.70;88.90;;;;;;5033192;28;20045;-81
2023/08/28 07:54:33;;;;;;;1.48;0.52;;;23.80;87.80;;;;;;5033528;28;20071;-79
2023/08/28 07:56:59;;;;;;;0.52;0.43;;;23.70;86.50;;;;;;5014077;28;20048;-80
2023/08/28 07:59:25;;;;;;;0.40;0.40;;;23.70;86.70;;;;;;5013549;28;20063;-82
2023/08/28 08:01:51;;;;;;;1.55;0.40;;;23.70;85.90;;;;;;5013098;28;20396;-79
2023/08/28 08:04:17;;;;;;;0.55;0.40;;;23.70;85.90;;;;;;5013507;28;20026;-82
2023/08/28 08:06:42;;;;;;;0.70;0.40;;;23.80;86.50;;;;;;5013278;28;20373;-80
2023/08/28 08:09:09;;;;;;;1.00;0.50;;;24.00;84.80;;;;;;5013300;28;20037;-82
2023/08/28 08:11:35;;;;;;;0.20;0.20;;;24.10;85.20;;;;;;5012732;28;20531;-80
2023/08/28 08:14:01;;;;;;;1.60;0.68;;;24.10;84.80;;;;;;5013085;28;20033;-81
2023/08/28 08:16:26;;;;;;;0.80;0.50;;;24.00;84.30;;;;;;5013030;28;20546;-81
2023/08/28 08:18:52;;;;;;;0.38;0.28;;;23.90;85.00;;;;;;5012703;28;20026;-81
2023/08/28 08:21:17;;;;;;;1.45;0.60;;;23.90;85.80;;;;;;5013047;28;20084;-81
2023/08/28 08:23:43;;;;;;;0.40;0.40;;;23.90;85.30;;;;;;5012717;28;20066;-78
2023/08/28 08:26:09;;;;;;;0.47;0.40;;;24.10;87.00;;;;;;5012294;28;20034;-80
2023/08/28 08:28:35;;;;;;;0.68;0.40;;;24.40;86.30;;;;;;5012649;28;20033;-75
2023/08/28 08:31:00;;;;;;;0.55;0.40;;;24.50;84.50;;;;;;5027753;28;20021;-80
2023/08/28 08:33:26;;;;;;;1.42;0.93;;;24.60;83.60;;;;;;5032229;28;20036;-80
2023/08/28 08:35:51;;;;;;;0.40;0.40;;;24.70;83.30;;;;;;5033649;28;20083;-79
2023/08/28 08:38:17;;;;;;;1.08;0.60;;;24.70;82.70;;;;;;5033183;28;20364;-77
2023/08/28 08:40:43;;;;;;;0.20;0.20;;;24.80;82.30;;;;;;5033364;28;20022;-78
2023/08/28 08:43:09;;;;;;;0.80;0.32;;;24.90;81.20;;;;;;5032442;28;20024;-79
2023/08/28 08:45:39;;;;;;;0.75;0.38;;;25.00;80.20;;;;;;5033661;28;20029;-74
2023/08/28 08:48:07;;;;;;;2.20;0.63;;;24.80;79.40;;;;;;5031634;28;20121;-76
2023/08/28 08:50:37;;;;;;;0.55;0.55;;;24.70;81.20;;;;;;5032101;28;20025;-76
2023/08/28 08:53:09;;;;;;;0.40;0.40;;;24.80;80.50;;;;;;5032243;28;20033;-74
2023/08/28 08:55:41;;;;;;;1.35;0.80;;;24.70;81.60;;;;;;5033314;28;20045;-82
2023/08/28 08:58:11;;;;;;;0.47;0.47;;;24.70;80.90;;;;;;5069039;22;20086;-78
2023/08/28 09:00:39;;;;;;;1.15;0.60;;;24.70;80.90;;;;;;5055052;28;20476;-80
2023/08/28 09:03:06;;;;;;;0.28;0.28;;;24.80;80.90;;;;;;5054017;28;20506;-80
2023/08/28 09:05:32;;;;;;;1.00;0.70;;;24.70;79.90;;;;;;5056077;28;20028;-83
2023/08/28 09:08:01;;;;;;;1.20;0.73;;;24.50;79.80;;;;;;5053992;28;20029;-84
2023/08/28 09:10:27;;;;;;;0.95;0.50;;;24.50;81.50;;;;;;5057437;28;20029;-84
2023/08/28 09:12:54;;;;;;;0.43;0.43;;;24.60;81.90;;;;;;5056202;28;20529;-83
2023/08/28 09:15:20;;;;;;;0.60;0.60;;;24.60;80.00;;;;;;5054110;28;20029;-79
2023/08/28 09:17:45;;;;;;;0.50;0.50;;;24.70;80.90;;;;;;5052924;28;20034;-79
2023/08/28 09:20:16;;;;;;;0.52;0.52;;;24.80;81.70;;;;;;5052814;28;20027;-78
2023/08/28 09:23:00;;;;;;;0.75;0.43;;;24.80;79.70;;;;;;5052773;28;20059;-79
2023/08/28 09:25:26;;;;;;;0.60;0.57;;;24.90;79.60;;;;;;5053351;28;20142;-79
2023/08/28 09:27:54;;;;;;;0.50;0.50;;;25.00;79.20;;;;;;5054055;28;20024;-79
2023/08/28 09:30:37;;;;;;;0.77;0.57;;;25.10;80.10;;;;;;5053896;28;20096;-79
2023/08/28 09:33:06;;;;;;;0.63;0.47;;;25.20;77.60;;;;;;5054827;28;20016;-80
2023/08/28 09:35:37;;;;;;;0.60;0.60;;;25.20;77.40;;;;;;5052709;28;20403;-81
2023/08/28 09:38:03;;;;;;;0.90;0.70;;;25.10;76.20;;;;;;5052559;28;20645;-81
2023/08/28 09:40:34;;;;;;;1.02;0.70;;;25.00;77.40;;;;;;5052877;28;20025;-81
2023/08/28 09:43:00;;;;;;;2.53;1.02;;;25.20;77.10;;;;;;5053049;28;20021;-80
2023/08/28 09:45:31;;;;;;;0.70;0.60;;;25.30;77.00;;;;;;5054470;28;20028;-80
2023/08/28 09:47:56;;;;;;;1.70;1.00;;;25.40;78.50;;;;;;5053793;28;20017;-81
2023/08/28 09:50:29;;;;;;;0.70;0.50;;;25.50;77.60;;;;;;5052652;28;20487;-80
2023/08/28 09:53:04;;;;;;;5.53;0.90;;;25.60;76.40;;;;;;5053010;28;20053;-81
2023/08/28 09:55:30;;;;;;;1.13;0.70;;;25.60;77.20;;;;;;5052825;28;20025;-79
2023/08/28 09:57:55;;;;;;;0.80;0.60;;;25.50;76.10;;;;;;5052089;28;20029;-79
2023/08/28 10:00:21;;;;;;;1.35;0.50;;;25.50;75.80;;;;;;5052753;28;20024;-81
2023/08/28 10:02:47;;;;;;;1.40;0.70;;;25.60;77.20;;;;;;5052320;28;20072;-79
2023/08/28 10:05:14;;;;;;;1.10;0.63;;;25.50;76.10;;;;;;5053806;28;20021;-80
2023/08/28 10:07:42;;;;;;;1.42;0.90;;;25.40;76.10;;;;;;5052268;28;20052;-78
2023/08/28 10:10:14;;;;;;;1.05;0.80;;;25.30;76.00;;;;;;5051975;28;20487;-82
2023/08/28 10:12:42;;;;;;;1.23;0.93;;;25.40;77.20;;;;;;5052713;28;20033;-81
2023/08/28 10:15:08;;;;;;;1.08;0.95;;;25.20;76.00;;;;;;5052380;28;20076;-79
2023/08/28 10:17:35;;;;;;;0.73;0.73;;;25.20;76.30;;;;;;5051870;28;20065;-79
2023/08/28 10:20:03;;;;;;;2.47;0.80;;;25.30;75.70;;;;;;5053757;28;20044;-82
2023/08/28 10:22:33;;;;;;;4.78;0.73;;;25.40;77.40;;;;;;5052722;28;20398;-81
2023/08/28 10:24:59;;;;;;;1.10;0.73;;;25.70;76.20;;;;;;5053754;28;20435;-81
2023/08/28 10:27:26;;;;;;;2.80;0.80;;;25.90;77.00;;;;;;5053371;28;20029;-82
2023/08/28 10:29:53;;;;;;;0.80;0.68;;;26.00;75.30;;;;;;5052294;28;20589;-79
2023/08/28 10:32:20;;;;;;;1.63;0.63;;;26.10;74.20;;;;;;5052196;28;20518;-80
2023/08/28 10:34:47;;;;;;;1.50;0.93;;;26.20;75.80;;;;;;5054352;28;20028;-79
2023/08/28 10:37:13;;;;;;;0.75;0.75;;;26.10;74.50;;;;;;5055992;28;20025;-80
2023/08/28 10:39:41;;;;;;;0.68;0.68;;;26.40;76.20;;;;;;5057755;28;20045;-79
2023/08/28 10:42:11;;;;;;;0.73;0.70;;;26.10;75.60;;;;;;5056755;28;20021;-80
2023/08/28 10:44:38;;;;;;;3.03;0.63;;;26.20;74.90;;;;;;5056213;28;20025;-79
2023/08/28 10:47:05;;;;;;;2.22;0.90;;;26.20;74.40;;;;;;5055188;28;20120;-78
2023/08/28 10:49:33;;;;;;;2.30;0.98;;;26.20;77.30;;;;;;5055277;28;20394;-79
2023/08/28 10:52:06;;;;;;;2.08;0.90;;;26.40;76.90;;;;;;5046544;28;20036;-78
2023/08/28 10:54:37;;;;;;;1.00;1.00;;;26.30;76.00;;;;;;5047658;28;20060;-80
2023/08/28 10:57:06;;;;;;;0.77;0.77;;;26.40;75.60;;;;;;5045263;28;20021;-78
2023/08/28 10:59:44;;;;;;;0.75;0.75;;;26.40;75.50;;;;;;5035742;28;20495;-79
2023/08/28 11:02:10;;;;;;;1.58;1.10;;;26.50;75.50;;;;;;5037577;28;20030;-78
2023/08/28 11:04:39;;;;;;;2.13;0.90;;;26.30;77.10;;;;;;5035879;28;20021;-79
2023/08/28 11:07:08;;;;;;;2.00;0.95;;;26.50;77.60;;;;;;5035186;28;20033;-78
2023/08/28 11:09:35;;;;;;;2.08;1.17;;;26.50;76.70;;;;;;5037216;28;20027;-79
2023/08/28 11:12:01;;;;;;;1.83;0.80;;;26.40;77.10;;;;;;5035901;28;20036;-78
2023/08/28 11:14:32;;;;;;;1.10;1.00;;;26.60;77.80;;;;;;5037029;28;20021;-79
2023/08/28 11:17:07;;;;;;;1.23;1.13;;;26.60;76.40;;;;;;5037457;28;20025;-80
2023/08/28 11:19:56;;;;;;;4.70;1.20;;;26.80;76.90;;;;;;5036241;28;20049;-78
2023/08/28 11:22:31;;;;;;;1.50;1.40;;;26.60;76.70;;;;;;5037459;28;20028;-79
2023/08/28 11:24:57;;;;;;;;;;;26.70;78.70;;;;;;5037350;28;20033;-78
2023/08/28 11:27:34;;;;;;;3.42;1.02;;;26.60;76.90;;;;;;5037035;28;19905;-79
2023/08/28 11:30:05;;;;;;;0.88;0.70;;;26.80;77.80;;;;;;5037169;28;20021;-78
2023/08/28 11:32:32;;;;;;;1.30;1.20;;;26.90;76.10;;;;;;5037252;28;20104;-79
2023/08/28 11:35:00;;;;;;;0.90;0.80;;;26.90;77.90;;;;;;5035058;28;20116;-80
2023/08/28 11:37:32;;;;;;;1.08;0.73;;;26.90;75.70;;;;;;5035927;28;20017;-80
2023/08/28 11:39:59;;;;;;;2.17;1.05;;;26.70;76.60;;;;;;5039833;28;20033;-79
2023/08/28 11:42:27;;;;;;;0.95;0.88;;;26.60;77.20;;;;;;5039384;28;20120;-79
2023/08/28 11:44:53;;;;;;;3.58;0.88;;;26.50;75.70;;;;;;5040522;28;20506;-78
2023/08/28 11:47:26;;;;;;;2.67;1.08;;;26.50;76.40;;;;;;5034230;28;20052;-79
2023/08/28 11:49:53;;;;;;;1.45;1.05;;;26.70;76.90;;;;;;5037117;28;20022;-79
2023/08/28 11:52:18;;;;;;;2.15;1.35;;;26.80;77.50;;;;;;5041775;28;20028;-78
2023/08/28 11:54:44;;;;;;;4.95;1.83;;;26.60;77.50;;;;;;5042052;28;20029;-79
2023/08/28 11:57:10;;;;;;;7.82;1.08;;;26.80;77.60;;;;;;5041081;28;20036;-80
2023/08/28 11:59:36;;;;;;;2.40;1.27;;;26.60;77.70;;;;;;5045396;28;20476;-79
2023/08/28 12:02:03;;;;;;;1.63;1.23;;;26.60;76.90;;;;;;5040381;28;20025;-76
2023/08/28 12:04:36;;;;;;;4.78;1.90;;;26.60;78.80;;;;;;5036460;28;20496;-77
2023/08/28 12:07:04;;;;;;;1.20;1.10;;;26.60;79.40;;;;;;5034647;28;20053;-77
2023/08/28 12:09:32;;;;;;;1.00;0.88;;;26.70;78.70;;;;;;5035772;28;20018;-77
2023/08/28 12:11:59;;;;;;;0.80;0.80;;;26.80;76.80;;;;;;5037054;28;20048;-77
2023/08/28 12:14:25;;;;;;;1.20;1.08;;;26.70;76.90;;;;;;5037693;28;20048;-78
2023/08/28 12:16:59;;;;;;;3.00;1.38;;;26.80;79.10;;;;;;5034988;28;20025;-77
2023/08/28 12:19:25;;;;;;;3.78;1.25;;;26.70;78.50;;;;;;5033170;28;20022;-77
2023/08/28 12:21:50;;;;;;;1.88;1.33;;;26.60;79.10;;;;;;5035529;28;20026;-77
2023/08/28 12:24:16;;;;;;;2.25;1.35;;;26.70;79.90;;;;;;5035801;28;20029;-78
2023/08/28 12:26:43;;;;;;;3.85;1.10;;;26.80;80.50;;;;;;5034793;28;20438;-77
2023/08/28 12:29:09;;;;;;;1.73;1.20;;;26.90;78.90;;;;;;5032576;28;20021;-76
2023/08/28 12:31:36;;;;;;;3.13;1.38;;;26.80;78.00;;;;;;5032741;28;20021;-77
2023/08/28 12:34:09;;;;;;;2.03;1.00;;;26.70;78.20;;;;;;5033115;28;20487;-77
2023/08/28 12:36:39;;;;;;;2.22;1.23;;;26.90;78.30;;;;;;5033706;28;20025;-76
2023/08/28 12:39:06;;;;;;;2.17;1.38;;;27.00;78.20;;;;;;5032023;28;20025;-77
2023/08/28 12:41:47;;;;;;;2.03;1.77;;;26.90;80.50;;;;;;5032826;28;20044;-77
2023/08/28 12:44:12;;;;;;;3.83;2.15;;;27.20;81.30;;;;;;5033089;28;20026;-77
2023/08/28 12:46:38;;;;;;;5.55;1.80;;;27.30;81.60;;;;;;5034472;28;20029;-77